createdAt,value
2023-01-13T00:00:49.991Z,16.10
2023-01-13T00:03:17.017Z,14.70
2023-01-13T00:05:44.091Z,13.00
2023-01-13T00:08:10.775Z,18.20
2023-01-13T00:10:37.724Z,15.70
2023-01-13T00:13:04.861Z,16.70
2023-01-13T00:15:32.441Z,14.00
2023-01-13T00:17:59.487Z,15.20
2023-01-13T00:20:26.313Z,15.40
2023-01-13T00:22:54.743Z,14.20
2023-01-13T00:25:25.680Z,16.20
2023-01-13T00:27:52.580Z,15.10
2023-01-13T00:30:20.322Z,15.90
2023-01-13T00:32:46.978Z,16.80
2023-01-13T00:35:13.911Z,15.60
2023-01-13T00:37:40.610Z,16.10
2023-01-13T00:40:08.241Z,14.40
2023-01-13T00:42:54.149Z,14.60
2023-01-13T00:45:20.760Z,17.00
2023-01-13T00:47:47.454Z,16.90
2023-01-13T00:50:14.830Z,14.50
2023-01-13T00:52:42.338Z,16.70
2023-01-13T00:55:09.144Z,15.10
2023-01-13T00:57:36.649Z,15.90
2023-01-13T01:00:04.185Z,16.70
2023-01-13T01:02:31.174Z,17.30
2023-01-13T01:05:00.393Z,15.10
2023-01-13T01:07:27.078Z,15.80
2023-01-13T01:09:53.859Z,18.80
2023-01-13T01:12:20.633Z,16.50
2023-01-13T01:14:47.338Z,15.10
2023-01-13T01:17:14.816Z,16.40
2023-01-13T01:19:41.743Z,14.20
2023-01-13T01:22:08.441Z,18.30
2023-01-13T01:24:36.180Z,14.80
2023-01-13T01:27:04.371Z,17.50
2023-01-13T01:29:31.581Z,18.70
2023-01-13T01:31:58.717Z,17.90
2023-01-13T01:34:25.367Z,17.70
2023-01-13T01:36:51.959Z,16.20
2023-01-13T01:39:18.634Z,14.40
2023-01-13T01:42:05.257Z,17.00
2023-01-13T01:44:41.851Z,17.00
2023-01-13T01:47:09.948Z,17.90
2023-01-13T01:49:37.183Z,16.20
2023-01-13T01:52:08.053Z,20.10
2023-01-13T01:55:23.516Z,17.90
2023-01-13T01:58:05.272Z,13.30
2023-01-13T02:00:32.524Z,17.40
2023-01-13T02:02:59.234Z,16.30
2023-01-13T02:05:26.161Z,20.20
2023-01-13T02:07:55.266Z,17.10
2023-01-13T02:10:23.139Z,17.30
2023-01-13T02:12:49.858Z,20.80
2023-01-13T02:15:33.520Z,18.20
2023-01-13T02:18:11.647Z,18.70
2023-01-13T02:20:51.754Z,17.90
2023-01-13T02:23:59.339Z,15.70
2023-01-13T02:26:50.685Z,16.90
2023-01-13T02:30:14.790Z,16.00
2023-01-13T02:32:46.282Z,15.50
2023-01-13T02:35:14.263Z,15.70
2023-01-13T02:37:42.578Z,14.20
2023-01-13T02:40:34.360Z,15.70
2023-01-13T02:43:24.483Z,17.10
2023-01-13T02:46:01.205Z,15.60
2023-01-13T02:48:28.002Z,17.40
2023-01-13T02:51:04.407Z,21.30
2023-01-13T02:53:34.061Z,17.80
2023-01-13T02:56:01.821Z,18.10
2023-01-13T02:58:29.221Z,18.30
2023-01-13T03:00:56.208Z,18.30
2023-01-13T03:03:23.298Z,19.30
2023-01-13T03:05:52.935Z,19.10
2023-01-13T03:08:28.084Z,18.20
2023-01-13T03:11:05.411Z,16.60
2023-01-13T03:13:41.564Z,19.70
2023-01-13T03:16:28.838Z,20.30
2023-01-13T03:18:55.474Z,18.90
2023-01-13T03:21:34.931Z,19.00
2023-01-13T03:24:25.292Z,18.30
2023-01-13T03:27:08.789Z,20.50
2023-01-13T03:29:38.082Z,17.50
2023-01-13T03:32:32.296Z,19.20
2023-01-13T03:35:14.406Z,18.30
2023-01-13T03:37:43.371Z,18.80
2023-01-13T03:40:21.481Z,19.10
2023-01-13T03:43:11.667Z,17.70
2023-01-13T03:45:38.829Z,18.30
2023-01-13T03:48:08.375Z,19.60
2023-01-13T03:50:53.318Z,19.10
2023-01-13T03:53:27.478Z,18.00
2023-01-13T03:55:58.267Z,18.80
2023-01-13T03:58:33.223Z,18.70
2023-01-13T04:01:16.605Z,19.90
2023-01-13T04:03:59.968Z,20.50
2023-01-13T04:06:37.711Z,19.10
2023-01-13T04:09:33.624Z,19.70
2023-01-13T04:12:06.832Z,19.20
2023-01-13T04:14:33.423Z,18.90
2023-01-13T04:17:00.324Z,19.60
2023-01-13T04:19:26.913Z,18.00
2023-01-13T04:21:53.673Z,19.00
2023-01-13T04:24:20.236Z,18.00
2023-01-13T04:26:46.843Z,18.50
2023-01-13T04:29:15.519Z,19.80
2023-01-13T04:31:42.352Z,17.80
2023-01-13T04:34:12.043Z,19.30
2023-01-13T04:36:38.711Z,15.20
2023-01-13T04:39:05.263Z,17.10
2023-01-13T04:41:52.708Z,17.40
2023-01-13T04:44:19.308Z,17.80
2023-01-13T04:46:46.026Z,18.70
2023-01-13T04:49:12.833Z,17.10
2023-01-13T04:51:41.629Z,18.40
2023-01-13T04:54:10.598Z,20.40
2023-01-13T04:56:37.075Z,16.20
2023-01-13T04:59:03.655Z,20.20
2023-01-13T05:01:30.274Z,17.50
2023-01-13T05:03:57.099Z,18.00
2023-01-13T05:06:23.662Z,16.50
2023-01-13T05:08:50.499Z,17.70
2023-01-13T05:11:36.136Z,18.00
2023-01-13T05:14:21.586Z,17.30
2023-01-13T05:16:59.458Z,15.90
2023-01-13T05:19:36.323Z,17.40
2023-01-13T05:22:21.940Z,16.50
2023-01-13T05:25:08.741Z,20.20
2023-01-13T05:27:36.088Z,16.20
2023-01-13T05:30:03.537Z,16.10
2023-01-13T07:13:50.010Z,14.90
2023-01-13T07:16:16.940Z,16.60
2023-01-13T07:18:46.390Z,16.70
2023-01-13T07:21:18.172Z,19.60
2023-01-13T07:23:45.758Z,14.40
2023-01-13T07:26:12.744Z,12.10
2023-01-13T07:28:39.714Z,15.00
2023-01-13T07:31:15.625Z,11.40
2023-01-13T07:33:42.462Z,12.50
2023-01-13T07:36:09.206Z,16.10
2023-01-13T07:38:35.942Z,12.90
2023-01-13T07:41:28.682Z,32.30
2023-01-13T07:43:55.343Z,129.40
2023-01-13T07:46:22.232Z,17.90
2023-01-13T07:48:49.047Z,71.40
2023-01-13T07:51:16.029Z,14.80
2023-01-13T07:53:42.692Z,19.80
2023-01-13T07:56:09.964Z,47.90
2023-01-13T07:58:36.999Z,65.30
2023-01-13T08:04:58.066Z,22.40
2023-01-13T08:07:24.866Z,25.90
2023-01-13T08:09:51.616Z,22.20
2023-01-13T08:12:37.296Z,20.40
2023-01-13T08:18:17.793Z,21.30
2023-01-13T08:20:46.376Z,14.20
2023-01-13T08:23:13.261Z,17.60
2023-01-13T08:25:40.578Z,17.80
2023-01-13T08:28:10.322Z,18.20
2023-01-13T08:30:41.809Z,18.00
2023-01-13T08:33:13.454Z,23.50
2023-01-13T08:35:40.789Z,17.20
2023-01-13T08:38:10.996Z,9.20
2023-01-13T08:40:42.301Z,17.00
2023-01-13T08:43:09.323Z,15.40
2023-01-13T08:45:36.372Z,13.70
2023-01-13T08:48:03.568Z,18.00
2023-01-13T08:50:33.840Z,15.40
2023-01-13T08:53:01.032Z,12.20
2023-01-13T08:55:27.917Z,16.50
2023-01-13T08:58:03.410Z,15.70
2023-01-13T09:00:43.351Z,16.10
2023-01-13T09:03:10.071Z,15.50
2023-01-13T09:05:37.703Z,10.50
2023-01-13T09:08:04.713Z,13.90
2023-01-13T09:10:32.006Z,15.50
2023-01-13T09:13:14.157Z,15.40
2023-01-13T09:15:42.729Z,11.60
2023-01-13T09:18:09.594Z,14.60
2023-01-13T09:20:36.430Z,15.70
2023-01-13T09:23:03.538Z,14.40
2023-01-13T09:25:30.873Z,12.50
2023-01-13T09:27:57.982Z,13.40
2023-01-13T09:30:28.105Z,15.70
2023-01-13T09:33:19.069Z,11.50
2023-01-13T09:35:47.332Z,13.50
2023-01-13T09:38:16.626Z,14.70
2023-01-13T09:40:44.105Z,11.70
2023-01-13T09:43:37.190Z,14.80
2023-01-13T09:46:38.253Z,12.30
2023-01-13T09:49:05.047Z,13.10
2023-01-13T09:51:36.136Z,12.70
2023-01-13T09:54:17.775Z,13.10
2023-01-13T09:56:44.773Z,14.50
2023-01-13T09:59:12.386Z,12.30
2023-01-13T10:01:43.436Z,12.60
2023-01-13T10:04:12.126Z,13.80
2023-01-13T10:06:42.272Z,17.60
2023-01-13T10:09:15.432Z,28.60
2023-01-13T10:12:01.686Z,16.10
2023-01-13T10:14:36.864Z,28.50
2023-01-13T10:17:43.512Z,19.80
2023-01-13T10:20:31.980Z,21.20
2023-01-13T10:23:05.363Z,18.10
2023-01-13T10:25:48.457Z,28.10
2023-01-13T10:28:19.194Z,14.80
2023-01-13T10:30:47.297Z,15.00
2023-01-13T10:33:28.135Z,14.80
2023-01-13T10:36:09.978Z,13.90
2023-01-13T10:38:37.755Z,13.80
2023-01-13T10:41:10.475Z,12.90
2023-01-13T10:43:37.512Z,14.60
2023-01-13T10:46:06.435Z,15.40
2023-01-13T10:48:34.142Z,12.40
2023-01-13T10:51:14.587Z,13.00
2023-01-13T10:54:15.239Z,11.80
2023-01-13T10:56:45.293Z,13.00
2023-01-13T10:59:28.836Z,12.40
2023-01-13T11:02:27.074Z,12.90
2023-01-13T11:04:54.896Z,13.60
2023-01-13T11:07:58.322Z,14.30
2023-01-13T11:10:27.512Z,14.10
2023-01-13T11:12:57.328Z,12.10
2023-01-13T11:15:34.125Z,11.70
2023-01-13T11:18:06.354Z,14.00
2023-01-13T11:20:37.519Z,12.90
2023-01-13T11:23:16.022Z,11.60
2023-01-13T11:25:44.845Z,13.40
2023-01-13T11:28:36.133Z,13.00
2023-01-13T11:31:48.808Z,12.30
2023-01-13T11:34:26.556Z,13.80
2023-01-13T11:36:55.231Z,11.90
2023-01-13T11:39:47.971Z,10.10
2023-01-13T11:42:26.095Z,13.70
2023-01-13T11:45:28.119Z,12.80
2023-01-13T11:47:58.877Z,13.00
2023-01-13T11:50:42.090Z,10.70
2023-01-13T11:53:34.742Z,15.20
2023-01-13T11:56:14.310Z,15.10
2023-01-13T11:58:59.870Z,12.80
2023-01-13T12:01:35.562Z,15.20
2023-01-13T12:04:41.357Z,9.10
2023-01-13T12:07:17.945Z,11.30
2023-01-13T12:10:13.070Z,13.60
2023-01-13T12:12:52.976Z,8.90
2023-01-13T12:15:35.925Z,12.40
2023-01-13T12:18:36.874Z,12.90
2023-01-13T12:21:28.376Z,12.60
2023-01-13T12:24:15.948Z,12.30
2023-01-13T12:27:04.575Z,12.70
2023-01-13T12:29:36.356Z,23.90
2023-01-13T12:32:10.470Z,19.50
2023-01-13T12:34:45.822Z,20.00
2023-01-13T12:37:43.507Z,21.40
2023-01-13T12:40:34.301Z,21.30
2023-01-13T12:43:32.086Z,29.80
2023-01-13T12:46:26.217Z,58.30
2023-01-13T12:49:00.152Z,59.60
2023-01-13T12:51:42.961Z,61.60
2023-01-13T12:54:30.322Z,59.00
2023-01-13T12:56:58.034Z,58.60
2023-01-13T13:16:25.717Z,16.30
2023-01-13T13:18:54.359Z,17.20
2023-01-13T13:21:21.382Z,17.20
2023-01-13T13:23:54.227Z,19.10
2023-01-13T13:26:30.157Z,18.10
2023-01-13T13:29:25.983Z,17.90
2023-01-13T13:32:13.475Z,39.60
2023-01-13T13:45:40.607Z,12.50
2023-01-13T13:48:24.606Z,16.20
2023-01-13T13:53:59.638Z,17.00
2023-01-13T13:56:27.815Z,17.50
2023-01-13T13:58:55.159Z,41.30
2023-01-13T14:01:25.703Z,20.10
2023-01-13T14:06:58.010Z,17.10
2023-01-13T14:09:26.410Z,15.90
2023-01-13T14:12:02.348Z,18.30
2023-01-13T14:14:29.241Z,17.30
2023-01-13T14:16:58.749Z,18.30
2023-01-13T14:19:26.811Z,19.90
2023-01-13T14:21:53.590Z,18.80
2023-01-13T14:24:22.487Z,19.00
2023-01-13T14:26:53.226Z,20.30
2023-01-13T14:29:23.053Z,19.80
2023-01-13T14:31:50.464Z,19.00
2023-01-13T14:34:32.305Z,20.10
2023-01-13T14:37:00.794Z,17.90
2023-01-13T14:39:37.613Z,18.90
2023-01-13T14:42:11.843Z,16.50
2023-01-13T14:46:17.786Z,18.80
2023-01-13T14:48:47.296Z,17.40
2023-01-13T14:51:21.650Z,16.90
2023-01-13T14:53:48.635Z,19.70
2023-01-13T14:56:44.830Z,16.10
2023-01-13T14:59:40.034Z,18.90
2023-01-13T15:02:25.474Z,18.00
2023-01-13T15:04:58.728Z,19.80
2023-01-13T15:07:32.058Z,18.20
2023-01-13T15:10:00.507Z,19.70
2023-01-13T15:12:40.864Z,19.70
2023-01-13T15:15:25.213Z,21.10
2023-01-13T15:17:52.403Z,21.10
2023-01-13T15:20:21.417Z,21.00
2023-01-13T15:22:48.232Z,20.40
2023-01-13T15:25:15.268Z,18.40
2023-01-13T15:27:43.317Z,19.70
2023-01-13T15:30:17.822Z,20.30
2023-01-13T15:32:44.530Z,20.00
2023-01-13T15:35:15.319Z,18.80
2023-01-13T15:37:42.792Z,19.70
2023-01-13T15:40:32.943Z,19.80
2023-01-13T15:43:18.327Z,18.90
2023-01-13T15:46:03.578Z,17.30
2023-01-13T15:48:33.166Z,17.40
2023-01-13T15:51:02.527Z,18.30
2023-01-13T15:53:30.326Z,20.10
2023-01-13T15:55:57.660Z,18.80
2023-01-13T16:00:43.009Z,17.50
2023-01-13T16:03:13.839Z,18.70
2023-01-13T16:08:44.410Z,50.90
2023-01-13T16:11:11.820Z,17.90
2023-01-13T16:13:38.647Z,16.30
2023-01-13T16:16:15.149Z,19.50
2023-01-13T16:18:41.844Z,26.20
2023-01-13T16:21:11.915Z,17.70
2023-01-13T16:24:33.464Z,17.60
2023-01-13T16:27:00.169Z,20.40
2023-01-13T16:29:26.923Z,15.30
2023-01-13T16:31:53.665Z,19.00
2023-01-13T16:34:20.482Z,22.90
2023-01-13T16:36:47.817Z,18.10
2023-01-13T16:39:21.601Z,17.90
2023-01-13T16:41:48.935Z,19.20
2023-01-13T16:44:15.634Z,19.00
2023-01-13T16:46:44.570Z,21.90
2023-01-13T16:49:12.993Z,18.60
2023-01-13T16:51:39.828Z,22.90
2023-01-13T16:54:06.753Z,18.30
2023-01-13T16:56:34.947Z,20.80
2023-01-13T16:59:10.504Z,21.50
2023-01-13T17:01:38.704Z,22.50
2023-01-13T17:04:05.598Z,19.80
2023-01-13T17:06:43.496Z,15.80
2023-01-13T17:09:18.397Z,18.70
2023-01-13T17:11:45.116Z,18.50
2023-01-13T17:14:19.274Z,16.40
2023-01-13T17:16:47.070Z,16.30
2023-01-13T17:19:14.140Z,142.50
2023-01-13T17:21:40.968Z,411.80
2023-01-13T17:24:08.175Z,357.40
2023-01-13T17:26:38.742Z,258.60
2023-01-13T17:29:07.261Z,348.80
2023-01-13T17:31:34.866Z,368.60
2023-01-13T17:34:02.363Z,414.30
2023-01-13T17:36:29.232Z,299.70
2023-01-13T17:38:56.142Z,312.60
2023-01-13T17:41:23.780Z,362.30
2023-01-13T17:43:50.784Z,297.10
2023-01-13T17:46:18.655Z,309.30
2023-01-13T17:48:46.276Z,305.60
2023-01-13T17:51:13.811Z,499.80
2023-01-13T17:53:40.802Z,503.90
2023-01-13T17:56:08.678Z,492.10
2023-01-13T18:00:31.402Z,21.50
2023-01-13T18:02:58.142Z,17.40
2023-01-13T18:05:24.943Z,17.70
2023-01-13T18:07:51.826Z,22.10
2023-01-13T18:10:18.763Z,35.80
2023-01-13T18:12:45.480Z,58.30
2023-01-13T18:15:12.186Z,70.10
2023-01-13T18:17:38.919Z,80.70
2023-01-13T18:20:24.976Z,50.80
2023-01-13T18:23:10.533Z,85.70
2023-01-13T18:25:58.079Z,40.60
2023-01-13T18:28:24.916Z,117.40
2023-01-13T18:30:51.624Z,140.40
2023-01-13T18:33:18.336Z,307.00
2023-01-13T18:35:45.128Z,239.50
2023-01-13T18:38:15.488Z,124.80
2023-01-13T18:40:44.359Z,270.80
2023-01-13T18:43:11.145Z,150.90
2023-01-13T18:45:37.865Z,92.20
2023-01-13T18:48:05.191Z,15.00
2023-01-13T18:50:32.244Z,18.90
2023-01-13T18:52:58.931Z,23.70
2023-01-13T18:55:25.867Z,15.20
2023-01-13T18:57:53.664Z,16.80
2023-01-13T19:00:21.574Z,17.30
2023-01-13T19:02:50.804Z,15.50
2023-01-13T19:05:17.563Z,15.90
2023-01-13T19:07:50.510Z,17.20
2023-01-13T19:10:17.878Z,15.00
2023-01-13T19:12:44.607Z,99.20
2023-01-13T19:15:11.567Z,105.00
2023-01-13T19:17:38.282Z,16.20
2023-01-13T19:20:05.690Z,14.20
2023-01-13T19:22:33.693Z,17.40
2023-01-13T19:25:01.258Z,18.50
2023-01-13T19:27:28.185Z,23.60
2023-01-13T19:29:58.165Z,181.50
2023-01-13T19:32:25.315Z,14.30
2023-01-13T19:34:53.247Z,153.50
2023-01-13T19:37:20.078Z,157.50
2023-01-13T19:39:46.917Z,392.00
2023-01-13T19:42:32.626Z,21.50
2023-01-13T19:45:18.372Z,83.40
2023-01-13T19:47:45.820Z,14.70
2023-01-13T19:50:13.686Z,257.60
2023-01-13T19:52:41.818Z,254.90
2023-01-13T19:55:09.795Z,38.20
2023-01-13T19:57:37.837Z,14.60
2023-01-13T20:00:06.854Z,25.90
2023-01-13T20:02:44.867Z,22.60
2023-01-13T20:05:12.962Z,14.30
2023-01-13T20:07:39.769Z,14.20
2023-01-13T20:10:07.476Z,13.70
2023-01-13T20:12:34.197Z,14.30
2023-01-13T20:15:00.889Z,22.80
2023-01-13T20:17:27.657Z,44.70
2023-01-13T20:19:54.825Z,48.60
2023-01-13T20:22:21.630Z,60.20
2023-01-13T20:24:52.120Z,60.40
2023-01-13T20:27:19.145Z,60.40
2023-01-13T20:29:45.828Z,61.60
2023-01-13T20:32:12.627Z,64.20
2023-01-13T20:34:39.333Z,13.60
2023-01-13T20:37:06.056Z,69.20
2023-01-13T20:39:33.945Z,60.90
2023-01-13T20:42:19.602Z,70.60
2023-01-13T20:44:47.247Z,67.90
2023-01-13T20:47:14.446Z,306.60
2023-01-13T20:49:41.597Z,242.70
2023-01-13T20:52:11.367Z,61.60
2023-01-13T20:54:38.875Z,197.10
2023-01-13T20:58:11.448Z,19.60
2023-01-13T21:00:38.217Z,19.70
2023-01-13T21:03:05.030Z,19.50
2023-01-13T21:05:33.303Z,21.20
2023-01-13T21:08:00.019Z,15.40
2023-01-13T21:10:26.825Z,20.90
2023-01-13T21:13:12.607Z,19.40
2023-01-13T21:15:39.290Z,21.50
2023-01-13T21:18:24.942Z,18.70
2023-01-13T21:21:11.448Z,18.30
2023-01-13T21:23:41.017Z,21.80
2023-01-13T21:26:08.429Z,19.70
2023-01-13T21:28:36.666Z,17.80
2023-01-13T21:31:07.460Z,16.80
2023-01-13T21:33:34.695Z,20.20
2023-01-13T21:36:05.946Z,20.80
2023-01-13T21:38:33.235Z,21.10
2023-01-13T21:41:07.749Z,17.60
2023-01-13T21:43:54.334Z,17.30
2023-01-13T21:46:40.780Z,19.70
2023-01-13T21:49:07.521Z,19.30
2023-01-13T21:51:34.805Z,19.20
2023-01-13T21:54:01.818Z,20.00
2023-01-13T21:56:28.558Z,22.00
2023-01-13T21:58:58.157Z,20.00
2023-01-13T22:01:24.995Z,18.30
2023-01-13T22:04:10.676Z,19.90
2023-01-13T22:06:37.372Z,19.00
